Time;durP1;ratioP1;P1;durP2;ratioP2;P2;SDS_P1;SDS_P2;PMS_P1;PMS_P2;Temp;Humidity;BMP_temperature;BMP_pressure;BME280_temperature;BME280_humidity;BME280_pressure;Samples;Min_cycle;Max_cycle;Signal;HPM_P1;HPM_P2
2023/06/20 00:00:47;;;;;;;5.47;5.07;;;;;;;22.55;50.30;101144.56;4996121;28;97669;-82
2023/06/20 00:03:13;;;;;;;5.20;4.80;;;;;;;22.48;50.36;101137.66;4988502;28;98863;-82
2023/06/20 00:05:38;;;;;;;5.23;4.83;;;;;;;22.43;50.39;101146.28;4989759;28;97088;-82
2023/06/20 00:08:03;;;;;;;5.50;5.00;;;;;;;22.34;50.68;101131.53;4995016;28;96940;-82
2023/06/20 00:10:29;;;;;;;5.20;4.80;;;;;;;22.29;50.60;101149.31;4993658;28;97516;-82
2023/06/20 00:12:54;;;;;;;6.50;5.97;;;;;;;22.24;50.31;101155.09;4993102;28;97662;-82
2023/06/20 00:15:25;;;;;;;5.40;5.00;;;;;;;22.20;50.72;101144.25;4990829;28;100716;-81
2023/06/20 00:18:00;;;;;;;5.43;5.03;;;;;;;22.16;51.72;101131.94;4978408;28;97162;-82
2023/06/20 00:20:27;;;;;;;5.70;5.03;;;;;;;22.16;51.01;101149.50;4975806;28;99916;-80
2023/06/20 00:22:52;;;;;;;6.20;5.70;;;;;;;22.16;51.02;101146.69;4975218;28;100925;-81
2023/06/20 00:25:17;;;;;;;5.77;5.27;;;;;;;22.16;51.07;101138.28;4992877;28;96629;-81
2023/06/20 00:27:43;;;;;;;6.10;5.60;;;;;;;22.13;50.99;101147.81;4988707;28;96960;-82
2023/06/20 00:30:09;;;;;;;5.90;5.43;;;;;;;22.12;51.02;101142.78;4995779;28;96817;-82
2023/06/20 00:32:34;;;;;;;5.80;5.20;;;;;;;22.09;51.15;101141.84;4996752;28;97415;-82
2023/06/20 00:35:00;;;;;;;5.63;5.20;;;;;;;22.07;50.92;101155.66;4997566;28;99532;-82
2023/06/20 00:37:26;;;;;;;6.20;5.70;;;;;;;22.06;51.21;101151.34;4992768;28;98857;-81
2023/06/20 00:39:52;;;;;;;5.43;5.00;;;;;;;22.05;51.22;101158.28;4991980;28;97868;-81
2023/06/20 00:42:24;;;;;;;6.20;5.70;;;;;;;22.05;51.69;101151.94;4981263;28;99957;-81
2023/06/20 00:44:51;;;;;;;4.90;4.57;;;;;;;22.02;51.29;101189.47;4970909;28;97456;-82
2023/06/20 00:47:17;;;;;;;5.70;5.30;;;;;;;22.02;51.21;101147.44;4994197;28;97385;-82
2023/06/20 00:49:45;;;;;;;6.30;5.80;;;;;;;21.95;51.57;101156.59;4973690;28;99322;-82
2023/06/20 00:52:14;;;;;;;6.07;5.60;;;;;;;21.97;51.64;101154.00;4993925;28;99219;-82
2023/06/20 00:54:40;;;;;;;6.20;5.70;;;;;;;21.97;51.62;101156.78;4998233;28;97372;-82
2023/06/20 00:57:06;;;;;;;5.97;5.47;;;;;;;21.96;51.58;101150.44;4996521;28;99064;-83
2023/06/20 00:59:31;;;;;;;6.47;5.97;;;;;;;21.97;51.51;101135.13;4996137;28;97177;-82
2023/06/20 01:01:56;;;;;;;6.70;5.27;;;;;;;21.93;51.63;101145.22;5002223;28;96807;-82
2023/06/20 01:04:22;;;;;;;5.67;5.17;;;;;;;21.83;51.70;101142.22;4992898;28;97240;-83
2023/06/20 01:06:59;;;;;;;5.47;5.07;;;;;;;21.84;51.89;101128.97;4991205;28;97091;-81
2023/06/20 01:09:38;;;;;;;6.10;5.60;;;;;;;21.76;52.59;101131.72;4979274;28;100972;-82
2023/06/20 01:12:33;;;;;;;6.07;5.57;;;;;;;21.69;53.14;101142.94;4996566;28;96567;-82
2023/06/20 01:15:18;;;;;;;5.60;5.20;;;;;;;21.68;52.98;101144.97;4969303;28;97776;-82
2023/06/20 01:17:47;;;;;;;6.70;6.10;;;;;;;21.70;52.30;101141.59;4973189;28;97092;-82
2023/06/20 01:20:24;;;;;;;5.70;5.30;;;;;;;21.69;52.54;101149.25;4996172;28;98075;-82
2023/06/20 01:23:18;;;;;;;6.60;5.93;;;;;;;21.64;53.23;101136.91;4998421;28;99435;-82
2023/06/20 01:26:07;;;;;;;4.70;4.30;;;;;;;21.59;53.22;101139.91;4997785;28;97212;-82
2023/06/20 01:28:43;;;;;;;6.97;6.47;;;;;;;21.57;52.82;101146.09;4996091;28;97266;-82
2023/06/20 01:31:17;;;;;;;5.47;5.07;;;;;;;21.56;52.91;101136.16;4995378;28;97064;-82
2023/06/20 01:33:53;;;;;;;6.87;6.27;;;;;;;21.53;53.15;101133.75;4997649;28;97678;-82
2023/06/20 01:36:20;;;;;;;6.20;5.70;;;;;;;21.45;52.29;101132.97;5000470;28;96765;-82
2023/06/20 01:38:49;;;;;;;6.60;5.90;;;;;;;21.42;52.72;101131.31;4994330;28;97192;-82
2023/06/20 01:41:20;;;;;;;6.30;5.80;;;;;;;21.39;52.83;101130.34;4994763;28;98146;-83
2023/06/20 01:43:47;;;;;;;6.30;5.80;;;;;;;21.39;52.65;101124.00;4998791;28;97649;-82
2023/06/20 01:46:14;;;;;;;5.47;4.97;;;;;;;21.33;52.63;101121.41;4978533;28;97323;-82
2023/06/20 01:48:41;;;;;;;6.57;6.07;;;;;;;21.26;52.92;101122.13;4995918;28;96883;-83
2023/06/20 01:51:07;;;;;;;6.20;5.70;;;;;;;21.25;53.12;101128.28;4996944;28;97618;-81
2023/06/20 01:53:34;;;;;;;6.57;5.97;;;;;;;21.28;53.27;101141.16;4992262;28;101910;-81
2023/06/20 01:56:01;;;;;;;6.03;5.63;;;;;;;21.30;52.97;101133.69;4980274;28;97138;-82
2023/06/20 01:58:28;;;;;;;6.80;6.23;;;;;;;21.27;53.19;101129.22;4974910;28;96875;-82
2023/06/20 02:00:57;;;;;;;7.10;5.70;;;;;;;21.28;53.51;101116.69;4998059;28;98853;-81
2023/06/20 02:03:27;;;;;;;6.70;6.20;;;;;;;21.30;53.30;101111.28;4985771;28;99469;-82
2023/06/20 02:05:56;;;;;;;6.00;5.60;;;;;;;21.28;53.30;101111.09;4982351;28;97145;-80
2023/06/20 02:08:24;;;;;;;5.90;5.40;;;;;;;21.30;53.41;101127.34;4990116;28;96817;-82
2023/06/20 02:10:51;;;;;;;6.40;5.80;;;;;;;21.33;53.52;101123.44;4982656;28;99541;-81
2023/06/20 02:13:18;;;;;;;5.80;5.30;;;;;;;21.31;53.51;101134.44;4994576;28;98965;-81
2023/06/20 02:15:45;;;;;;;7.10;6.50;;;;;;;21.29;53.46;101117.47;4996891;28;98617;-82
2023/06/20 02:18:11;;;;;;;6.57;5.97;;;;;;;21.30;53.53;101114.09;4994336;28;97272;-81
2023/06/20 02:20:36;;;;;;;5.90;5.40;;;;;;;21.31;53.58;101106.44;4994347;28;97473;-82
2023/06/20 02:23:07;;;;;;;5.90;5.40;;;;;;;21.27;53.74;101103.28;4991389;28;97217;-82
2023/06/20 02:25:34;;;;;;;6.80;6.00;;;;;;;21.27;53.62;101109.63;4996277;28;97076;-81
2023/06/20 02:28:02;;;;;;;6.50;6.00;;;;;;;21.27;53.85;101112.44;4993408;28;96689;-81
2023/06/20 02:30:30;;;;;;;5.63;5.23;;;;;;;21.24;53.84;101119.13;4991744;28;100670;-81
2023/06/20 02:32:57;;;;;;;6.10;5.50;;;;;;;21.24;53.91;101107.94;4993781;28;99628;-81
2023/06/20 02:35:24;;;;;;;6.80;6.07;;;;;;;21.23;54.08;101112.03;4985673;28;96818;-82
2023/06/20 02:37:53;;;;;;;5.83;5.33;;;;;;;21.26;54.07;101113.72;4986501;28;97032;-82
2023/06/20 02:40:24;;;;;;;6.07;5.40;;;;;;;21.28;54.31;101118.75;4991017;28;97832;-82
2023/06/20 02:42:50;;;;;;;7.23;5.27;;;;;;;21.29;53.89;101126.63;4995192;28;97519;-82
2023/06/20 02:45:17;;;;;;;5.97;5.47;;;;;;;21.30;54.06;101133.69;4988957;28;96660;-82
2023/06/20 02:48:07;;;;;;;6.07;5.57;;;;;;;21.34;54.55;101117.28;4993096;28;97125;-81
2023/06/20 02:50:51;;;;;;;5.87;5.40;;;;;;;21.34;54.83;101114.47;4994021;28;97585;-81
2023/06/20 02:53:43;;;;;;;4.87;4.53;;;;;;;21.35;54.89;101123.63;4977769;28;100821;-83
2023/06/20 02:56:14;;;;;;;5.70;5.30;;;;;;;21.36;54.30;101125.13;4981401;28;97005;-82
2023/06/20 02:58:46;;;;;;;6.20;5.70;;;;;;;21.36;54.57;101123.06;4982380;28;97071;-82
2023/06/20 03:01:17;;;;;;;6.80;6.10;;;;;;;21.37;54.63;101127.38;4992638;28;99749;-82
2023/06/20 03:03:44;;;;;;;6.40;5.80;;;;;;;21.33;54.00;101121.41;4992842;28;97177;-83
2023/06/20 03:06:12;;;;;;;6.07;5.47;;;;;;;21.32;54.07;101119.13;4996132;28;96801;-82
2023/06/20 03:08:42;;;;;;;5.93;5.33;;;;;;;21.27;54.44;101126.41;4994711;28;96610;-82
2023/06/20 03:11:08;;;;;;;5.90;5.40;;;;;;;21.26;54.21;101124.16;4996774;28;97821;-83
2023/06/20 03:13:34;;;;;;;7.10;6.50;;;;;;;21.26;54.32;101138.16;4995691;28;97705;-83
2023/06/20 03:15:59;;;;;;;5.53;5.03;;;;;;;21.25;54.36;101126.19;4977952;28;97452;-83
2023/06/20 03:18:25;;;;;;;6.30;5.80;;;;;;;21.27;54.55;101123.63;4991589;28;97191;-83
2023/06/20 03:20:50;;;;;;;6.00;5.37;;;;;;;21.27;54.45;101128.47;4992157;28;97859;-82
2023/06/20 03:23:16;;;;;;;6.57;6.00;;;;;;;21.27;54.51;101126.41;4988635;28;100309;-82
2023/06/20 03:25:42;;;;;;;6.27;5.70;;;;;;;21.23;54.43;101128.81;4976977;28;96809;-82
2023/06/20 03:28:07;;;;;;;6.23;5.73;;;;;;;21.28;54.35;101132.75;4990083;28;97278;-83
2023/06/20 03:30:32;;;;;;;6.30;5.70;;;;;;;21.27;54.34;101128.47;4974636;28;99623;-82
2023/06/20 03:32:58;;;;;;;6.73;5.93;;;;;;;21.28;54.52;101129.94;4978162;28;99226;-83
2023/06/20 03:35:23;;;;;;;6.23;5.67;;;;;;;21.28;54.54;101127.16;4997652;28;97409;-82
2023/06/20 03:37:49;;;;;;;6.40;5.90;;;;;;;21.25;54.53;101112.22;4977670;28;97109;-82
2023/06/20 03:40:14;;;;;;;6.03;5.60;;;;;;;21.26;54.41;101110.91;5000161;28;98006;-82
2023/06/20 03:42:40;;;;;;;6.07;5.67;;;;;;;21.21;54.49;101103.44;4977943;28;98961;-82
2023/06/20 03:45:07;;;;;;;5.23;4.83;;;;;;;21.21;54.63;101097.13;4975346;28;97037;-82
2023/06/20 03:47:33;;;;;;;6.03;5.50;;;;;;;21.17;54.80;101102.31;4969556;28;96998;-81
2023/06/20 03:49:58;;;;;;;7.07;6.40;;;;;;;21.17;54.79;101103.06;4994211;28;97832;-82
2023/06/20 03:52:24;;;;;;;5.73;5.20;;;;;;;21.20;54.89;101101.19;4978142;28;99482;-81
2023/06/20 03:54:49;;;;;;;5.63;5.23;;;;;;;21.23;54.81;101116.88;4993693;28;96950;-82
2023/06/20 03:57:15;;;;;;;6.80;6.23;;;;;;;21.25;54.93;101108.69;4984262;28;97219;-83
2023/06/20 03:59:41;;;;;;;6.60;6.00;;;;;;;21.25;54.91;101111.47;4997044;28;97404;-82
2023/06/20 04:02:06;;;;;;;7.20;6.60;;;;;;;21.26;54.97;101101.78;4974583;28;100211;-81
2023/06/20 04:04:32;;;;;;;6.80;6.17;;;;;;;21.25;55.08;101114.28;4978880;28;97115;-82
2023/06/20 04:06:57;;;;;;;7.00;6.40;;;;;;;21.31;55.12;101112.81;4995041;28;96840;-82
2023/06/20 04:09:26;;;;;;;6.10;5.60;;;;;;;21.34;54.92;101124.94;4985719;28;97823;-82
2023/06/20 04:11:53;;;;;;;6.50;5.90;;;;;;;21.35;55.06;101110.38;5000616;28;97321;-81
2023/06/20 04:14:18;;;;;;;6.27;5.77;;;;;;;21.37;55.14;101104.97;4978218;28;97325;-80
2023/06/20 04:16:44;;;;;;;6.10;5.60;;;;;;;21.44;55.11;101128.69;4995412;28;97331;-82
2023/06/20 04:19:10;;;;;;;6.77;6.17;;;;;;;21.47;55.18;101114.31;4997590;28;99262;-82
2023/06/20 04:21:35;;;;;;;6.40;5.80;;;;;;;21.52;55.13;101116.19;4986770;28;99502;-82
2023/06/20 04:24:00;;;;;;;6.93;6.33;;;;;;;21.59;55.22;101125.91;5002827;28;97435;-82
2023/06/20 04:26:26;;;;;;;6.20;5.77;;;;;;;21.64;55.27;101119.41;4994829;28;96824;-83
2023/06/20 04:28:51;;;;;;;6.43;5.93;;;;;;;21.71;55.29;101134.72;4990260;28;96799;-80
2023/06/20 04:31:16;;;;;;;6.10;5.50;;;;;;;21.80;55.24;101134.16;4994796;28;96767;-80
2023/06/20 04:33:45;;;;;;;7.40;6.70;;;;;;;21.87;55.05;101134.19;4976792;28;97324;-81
2023/06/20 04:36:13;;;;;;;7.20;6.60;;;;;;;21.93;55.23;101125.59;4983292;28;96907;-80
2023/06/20 04:38:43;;;;;;;5.67;5.17;;;;;;;22.03;55.30;101140.53;4977662;28;98925;-80
2023/06/20 04:41:11;;;;;;;6.33;5.70;;;;;;;22.13;55.43;101127.44;4991596;28;98827;-81
2023/06/20 04:43:37;;;;;;;6.87;6.17;;;;;;;22.17;55.20;101128.56;4995204;28;96916;-79
2023/06/20 04:46:03;;;;;;;6.43;5.93;;;;;;;22.21;55.32;101136.59;4974670;28;97199;-82
2023/06/20 04:48:29;;;;;;;5.33;4.83;;;;;;;22.25;55.27;101137.72;4983665;28;100670;-81
2023/06/20 04:50:56;;;;;;;6.40;5.80;;;;;;;22.32;55.32;101139.75;4977049;28;99125;-80
2023/06/20 04:53:22;;;;;;;6.10;5.60;;;;;;;22.36;55.54;101142.19;4983436;28;97006;-81
2023/06/20 04:55:48;;;;;;;6.87;6.27;;;;;;;22.39;55.44;101141.81;4992379;28;96741;-80
2023/06/20 04:58:14;;;;;;;6.97;6.37;;;;;;;22.42;55.69;101141.97;4990940;28;98973;-82
2023/06/20 05:00:39;;;;;;;6.50;5.90;;;;;;;22.51;55.69;101139.34;4974764;28;99772;-80
2023/06/20 05:03:04;;;;;;;6.17;5.67;;;;;;;22.60;55.57;101138.81;4990612;28;96645;-85
2023/06/20 05:05:30;;;;;;;6.13;5.63;;;;;;;22.67;55.61;101148.50;4976361;28;96827;-80
2023/06/20 05:07:58;;;;;;;5.80;5.30;;;;;;;22.73;55.53;101146.25;5000630;28;98880;-80
2023/06/20 05:10:24;;;;;;;6.10;5.60;;;;;;;22.83;55.15;101135.91;4975669;28;99419;-80
2023/06/20 05:12:50;;;;;;;6.33;5.83;;;;;;;22.86;55.49;101129.19;4993659;28;97018;-81
2023/06/20 05:15:15;;;;;;;6.67;6.10;;;;;;;22.91;55.52;101134.56;4992136;28;96861;-82
2023/06/20 05:17:40;;;;;;;6.23;5.63;;;;;;;22.97;55.63;101140.75;4997898;28;97353;-81
2023/06/20 05:20:06;;;;;;;6.87;5.67;;;;;;;23.06;55.60;101130.97;4994575;28;96793;-82
2023/06/20 05:22:35;;;;;;;6.27;5.67;;;;;;;23.12;55.66;101128.69;5002083;28;100308;-82
2023/06/20 05:25:00;;;;;;;6.23;5.73;;;;;;;23.18;55.45;101148.88;4998182;28;96635;-80
2023/06/20 05:27:26;;;;;;;6.30;5.80;;;;;;;23.25;55.19;101153.69;4995765;28;97533;-82
2023/06/20 05:29:51;;;;;;;6.03;5.53;;;;;;;23.34;55.36;101143.94;4996429;28;98283;-81
2023/06/20 05:32:16;;;;;;;6.23;5.63;;;;;;;23.43;55.37;101163.75;4999630;28;97143;-82
2023/06/20 05:34:42;;;;;;;5.67;5.17;;;;;;;23.46;55.18;101165.41;4979141;28;96795;-82
2023/06/20 05:37:07;;;;;;;5.80;5.30;;;;;;;23.47;55.17;101150.06;4989561;28;99249;-83
2023/06/20 05:39:32;;;;;;;7.27;5.70;;;;;;;23.54;55.13;101171.75;4984890;28;98516;-83
2023/06/20 05:41:58;;;;;;;6.57;6.03;;;;;;;23.57;55.24;101161.41;4999017;28;97116;-83
2023/06/20 05:44:23;;;;;;;7.30;6.60;;;;;;;23.62;54.99;101158.38;4994460;28;96615;-83
2023/06/20 05:46:48;;;;;;;5.53;5.13;;;;;;;23.74;55.17;101181.16;4991684;28;97120;-81
2023/06/20 05:49:15;;;;;;;5.40;5.00;;;;;;;23.80;55.09;101151.53;4989080;28;99037;-82
2023/06/20 05:51:41;;;;;;;6.87;6.23;;;;;;;23.88;54.85;101145.06;5000920;28;97286;-82
2023/06/20 05:54:07;;;;;;;6.77;6.23;;;;;;;23.95;54.82;101155.53;4997409;28;97198;-82
2023/06/20 05:56:33;;;;;;;6.37;5.87;;;;;;;24.07;54.67;101157.31;4983199;28;99142;-81
2023/06/20 05:58:58;;;;;;;7.93;7.23;;;;;;;24.09;54.66;101163.09;4983212;28;99098;-81
2023/06/20 06:01:23;;;;;;;6.47;5.87;;;;;;;24.17;54.64;101154.63;5001781;28;96851;-81
2023/06/20 06:03:49;;;;;;;6.63;6.03;;;;;;;24.29;54.53;101161.25;4999009;28;96573;-80
2023/06/20 06:06:15;;;;;;;6.50;6.00;;;;;;;24.41;54.37;101173.50;4996691;28;97617;-82
2023/06/20 06:08:40;;;;;;;6.60;6.03;;;;;;;24.47;54.38;101168.38;4985394;28;99099;-82
2023/06/20 06:11:07;;;;;;;6.60;5.97;;;;;;;24.52;54.12;101150.53;5001093;28;97142;-82
2023/06/20 06:13:33;;;;;;;6.73;6.03;;;;;;;24.46;54.20;101152.84;5002785;28;96752;-81
2023/06/20 06:15:58;;;;;;;7.27;6.57;;;;;;;24.51;54.37;101160.28;4981197;28;99722;-82
2023/06/20 06:18:24;;;;;;;7.27;6.67;;;;;;;24.49;54.36;101160.84;4995736;28;97686;-81
2023/06/20 06:20:49;;;;;;;6.37;5.77;;;;;;;24.59;54.11;101160.97;4999574;28;97579;-82
2023/06/20 06:23:14;;;;;;;6.00;5.50;;;;;;;24.65;53.91;101157.88;4997878;28;97301;-82
2023/06/20 06:25:40;;;;;;;6.83;6.30;;;;;;;24.66;53.92;101160.09;5001242;28;97577;-81
2023/06/20 06:28:05;;;;;;;5.37;4.97;;;;;;;24.77;54.06;101168.09;5000219;28;98666;-82
2023/06/20 06:30:33;;;;;;;6.23;5.60;;;;;;;24.83;53.70;101174.22;5000210;28;96972;-81
2023/06/20 06:32:59;;;;;;;7.40;6.20;;;;;;;24.90;53.69;101161.41;4996806;28;96961;-82
2023/06/20 06:35:24;;;;;;;6.73;6.20;;;;;;;24.98;53.62;101184.56;4982891;28;100379;-81
2023/06/20 06:37:52;;;;;;;6.60;6.10;;;;;;;25.04;53.58;101182.97;5000755;28;97333;-81
2023/06/20 06:40:20;;;;;;;5.13;4.77;;;;;;;25.06;53.51;101185.97;4995354;28;100059;-82
2023/06/20 06:42:46;;;;;;;6.80;6.17;;;;;;;25.14;53.55;101180.97;4971861;28;97176;-80
2023/06/20 06:45:11;;;;;;;6.63;6.10;;;;;;;25.17;53.49;101185.44;4981761;28;100264;-82
2023/06/20 06:47:36;;;;;;;6.73;6.13;;;;;;;25.14;53.38;101191.50;4998142;28;98451;-80
2023/06/20 06:50:02;;;;;;;5.33;4.93;;;;;;;25.14;53.49;101228.84;4981830;28;96802;-82
2023/06/20 06:52:30;;;;;;;6.27;5.67;;;;;;;25.13;53.30;101210.47;4974057;28;96956;-80
2023/06/20 06:54:55;;;;;;;4.70;4.30;;;;;;;25.16;53.40;101194.50;4981134;28;99181;-81
2023/06/20 06:57:21;;;;;;;6.00;5.50;;;;;;;25.18;53.31;101220.00;4999990;28;99223;-82
2023/06/20 06:59:46;;;;;;;5.33;4.93;;;;;;;25.25;53.09;101213.50;4996549;28;96604;-80
2023/06/20 07:02:13;;;;;;;6.80;5.73;;;;;;;25.23;53.45;101213.34;4996267;28;96798;-80
2023/06/20 07:04:39;;;;;;;5.23;4.83;;;;;;;25.28;53.15;101224.38;4977519;28;100456;-81
2023/06/20 07:07:05;;;;;;;5.60;5.20;;;;;;;25.33;53.26;101216.25;4998146;28;97684;-80
2023/06/20 07:09:30;;;;;;;5.80;5.30;;;;;;;25.33;53.33;101216.25;5000571;28;96945;-82
2023/06/20 07:11:56;;;;;;;10.87;5.60;;;;;;;25.29;53.43;101213.84;4995148;28;97310;-80
2023/06/20 07:14:21;;;;;;;5.77;5.27;;;;;;;25.29;53.36;101214.56;4986902;28;99228;-81
2023/06/20 07:16:46;;;;;;;5.67;5.20;;;;;;;25.27;53.24;101214.41;4992285;28;96724;-79
2023/06/20 07:19:12;;;;;;;6.70;5.10;;;;;;;25.33;53.69;101205.72;4974585;28;97299;-81
2023/06/20 07:21:37;;;;;;;17.13;5.30;;;;;;;25.34;53.78;101206.47;4980453;28;96811;-80
2023/06/20 07:24:03;;;;;;;5.70;5.27;;;;;;;25.37;53.52;101219.38;4987835;28;98317;-82
2023/06/20 07:26:28;;;;;;;5.87;5.30;;;;;;;25.34;53.63;101215.66;4996396;28;99922;-82
2023/06/20 07:28:53;;;;;;;5.57;5.17;;;;;;;25.32;53.71;101201.41;4986270;28;96940;-82
2023/06/20 07:31:19;;;;;;;6.00;5.53;;;;;;;25.28;53.75;101204.66;4984086;28;97027;-83
2023/06/20 07:33:46;;;;;;;6.70;5.97;;;;;;;25.22;53.89;101195.72;4982859;28;99148;-82
2023/06/20 07:36:12;;;;;;;6.50;5.73;;;;;;;25.21;53.55;101197.03;4995390;28;97425;-82
2023/06/20 07:38:37;;;;;;;6.47;5.80;;;;;;;25.23;53.74;101207.72;5000463;28;97192;-81
2023/06/20 07:41:03;;;;;;;5.93;5.33;;;;;;;25.22;53.80;101198.53;5002052;28;97046;-81
2023/06/20 07:43:28;;;;;;;6.60;6.00;;;;;;;25.28;53.65;101196.19;4996486;28;97848;-80
2023/06/20 07:45:53;;;;;;;6.03;5.47;;;;;;;25.32;53.39;101201.41;5004820;28;96690;-80
2023/06/20 07:48:19;;;;;;;5.80;5.30;;;;;;;25.36;53.35;101189.72;5000317;28;96583;-81
2023/06/20 07:50:44;;;;;;;5.87;5.37;;;;;;;25.44;53.31;101196.78;4990086;28;96986;-82
2023/06/20 07:53:09;;;;;;;6.03;5.37;;;;;;;25.49;53.38;101209.13;4984192;28;99103;-82
2023/06/20 07:55:36;;;;;;;6.23;5.73;;;;;;;25.54;53.27;101202.44;4996996;28;97278;-81
2023/06/20 07:58:01;;;;;;;5.97;5.47;;;;;;;25.59;53.26;101212.72;4984035;28;96757;-82
2023/06/20 08:00:28;;;;;;;5.87;5.47;;;;;;;25.62;53.12;101198.19;4984474;28;97459;-82
2023/06/20 08:02:53;;;;;;;5.50;5.03;;;;;;;25.67;53.25;101196.44;4992586;28;96860;-79
2023/06/20 08:05:19;;;;;;;6.50;6.00;;;;;;;25.74;52.93;101196.34;4980080;28;98919;-81
2023/06/20 08:07:44;;;;;;;6.03;5.43;;;;;;;25.82;53.12;101196.22;4998356;28;97159;-82
2023/06/20 08:10:12;;;;;;;7.80;5.57;;;;;;;25.84;53.06;101191.47;4980227;28;96681;-81
2023/06/20 08:12:38;;;;;;;5.90;5.40;;;;;;;25.96;52.77;101186.78;4997363;28;96686;-81
2023/06/20 08:15:03;;;;;;;5.73;5.33;;;;;;;26.02;52.67;101183.69;4981539;28;99250;-82
2023/06/20 08:17:29;;;;;;;5.63;5.23;;;;;;;26.04;52.82;101184.59;4991634;28;96674;-81
2023/06/20 08:19:54;;;;;;;5.20;4.80;;;;;;;26.09;52.59;101180.03;4984567;28;97171;-82
2023/06/20 08:22:19;;;;;;;6.47;5.87;;;;;;;26.16;52.58;101176.34;4993382;28;97537;-82
2023/06/20 08:24:45;;;;;;;7.70;6.80;;;;;;;26.17;52.33;101163.72;4987679;28;96807;-81
2023/06/20 08:27:10;;;;;;;6.37;5.87;;;;;;;26.33;52.41;101170.59;4990989;28;97450;-82
2023/06/20 08:29:35;;;;;;;6.47;5.63;;;;;;;26.51;51.96;101176.84;4984546;28;97838;-82
2023/06/20 08:32:01;;;;;;;6.20;5.60;;;;;;;26.64;51.88;101176.44;4996350;28;97812;-82
2023/06/20 08:34:26;;;;;;;6.73;6.10;;;;;;;26.72;51.62;101180.59;4988956;28;97223;-82
2023/06/20 08:36:53;;;;;;;7.10;6.07;;;;;;;26.80;51.42;101176.91;4992877;28;97111;-79
2023/06/20 08:39:19;;;;;;;6.10;5.50;;;;;;;26.85;51.40;101164.56;4991811;28;97170;-82
2023/06/20 08:41:44;;;;;;;6.73;6.17;;;;;;;26.90;51.20;101160.69;4990960;28;97849;-82
2023/06/20 08:44:10;;;;;;;5.80;5.40;;;;;;;26.97;51.34;101156.97;4971649;28;100400;-83
2023/06/20 08:46:36;;;;;;;5.53;5.03;;;;;;;27.03;50.94;101149.69;4991196;28;97263;-81
2023/06/20 08:49:03;;;;;;;5.57;5.07;;;;;;;27.14;50.92;101153.97;4989544;28;97047;-82
2023/06/20 08:51:29;;;;;;;6.10;5.60;;;;;;;27.22;50.68;101154.53;4996238;28;96604;-83
2023/06/20 08:53:55;;;;;;;6.33;5.73;;;;;;;27.27;50.85;101159.16;4998929;28;96959;-82
2023/06/20 08:56:23;;;;;;;6.50;6.00;;;;;;;27.32;50.46;101149.63;4981275;28;96999;-81
2023/06/20 08:58:48;;;;;;;6.07;5.63;;;;;;;27.32;50.39;101149.63;4993637;28;96935;-81
2023/06/20 09:01:13;;;;;;;5.63;5.20;;;;;;;27.34;50.37;101155.44;4979095;28;101363;-81
2023/06/20 09:03:39;;;;;;;5.57;5.17;;;;;;;27.37;50.13;101151.41;4994832;28;97025;-80
2023/06/20 09:06:05;;;;;;;5.90;5.40;;;;;;;27.44;50.32;101154.09;4999511;28;96960;-80
2023/06/20 09:08:39;;;;;;;5.33;4.93;;;;;;;27.46;49.74;101162.69;4981971;28;96941;-82
2023/06/20 09:11:09;;;;;;;5.70;5.23;;;;;;;27.42;49.93;101150.38;4992438;28;97867;-82
2023/06/20 09:13:35;;;;;;;5.43;5.03;;;;;;;27.41;49.93;101149.63;4988431;28;97392;-82
2023/06/20 09:16:11;;;;;;;6.00;5.50;;;;;;;27.37;49.64;101140.09;4990891;28;96754;-82
2023/06/20 09:18:40;;;;;;;5.57;5.17;;;;;;;27.37;50.07;101143.69;4997009;28;96862;-82
2023/06/20 09:21:06;;;;;;;5.33;4.87;;;;;;;27.42;49.77;101133.41;4995724;28;98144;-83
2023/06/20 09:23:33;;;;;;;5.20;4.80;;;;;;;27.45;49.63;101140.69;4988541;28;97561;-80
2023/06/20 09:26:15;;;;;;;6.30;5.80;;;;;;;27.46;49.53;101130.84;4990040;28;96991;-82
2023/06/20 09:28:40;;;;;;;5.40;5.00;;;;;;;27.50;49.55;101133.97;4994229;28;96891;-81
2023/06/20 09:31:06;;;;;;;5.93;5.50;;;;;;;27.57;49.67;101127.41;4990565;28;98573;-84
2023/06/20 09:33:32;;;;;;;5.70;5.27;;;;;;;27.63;49.40;101139.13;4989001;28;97503;-82
2023/06/20 09:36:17;;;;;;;5.10;4.80;;;;;;;27.65;49.00;101130.06;4976291;28;96665;-81
2023/06/20 09:38:52;;;;;;;6.03;5.53;;;;;;;27.70;48.95;101120.50;4990262;28;97607;-83
2023/06/20 09:41:17;;;;;;;6.23;5.73;;;;;;;27.65;48.98;101127.97;4988000;28;97105;-81
2023/06/20 09:43:44;;;;;;;5.43;5.03;;;;;;;27.66;49.15;101129.44;4990962;28;97211;-82
2023/06/20 09:46:09;;;;;;;6.67;6.07;;;;;;;27.60;48.97;101145.25;4971772;28;97192;-82
2023/06/20 09:48:36;;;;;;;5.43;5.00;;;;;;;27.61;49.21;101122.03;4970315;28;98650;-81
2023/06/20 09:51:02;;;;;;;5.27;4.87;;;;;;;27.71;48.96;101125.56;4972706;28;98755;-81
2023/06/20 09:53:37;;;;;;;5.30;4.90;;;;;;;27.80;48.91;101116.28;4992995;28;97899;-82
2023/06/20 09:56:03;;;;;;;5.80;5.40;;;;;;;27.90;48.81;101122.63;4990480;28;97468;-82
2023/06/20 09:58:29;;;;;;;5.60;5.20;;;;;;;27.98;48.60;101137.34;4986698;28;97359;-82
2023/06/20 10:00:56;;;;;;;5.80;5.40;;;;;;;28.07;48.61;101119.56;4989556;28;100050;-80
2023/06/20 10:03:22;;;;;;;5.90;5.40;;;;;;;28.26;47.99;101120.81;4992408;28;97462;-81
2023/06/20 10:05:47;;;;;;;6.00;5.60;;;;;;;28.40;48.16;101121.72;4983544;28;96725;-82
2023/06/20 10:08:17;;;;;;;5.70;5.30;;;;;;;28.56;47.92;101111.47;4975625;28;97465;-81
2023/06/20 10:10:42;;;;;;;6.90;5.77;;;;;;;28.69;47.60;101108.13;4990096;28;98241;-81
2023/06/20 10:13:09;;;;;;;5.53;4.97;;;;;;;28.83;47.46;101120.38;4973054;28;99424;-82
2023/06/20 10:15:35;;;;;;;5.40;5.00;;;;;;;28.91;47.03;101123.72;4984162;28;97444;-82
2023/06/20 10:18:00;;;;;;;5.37;4.87;;;;;;;28.93;47.22;101140.84;4991107;28;97002;-82
2023/06/20 10:20:28;;;;;;;4.97;4.57;;;;;;;29.05;47.11;101116.09;4988813;28;98653;-82
2023/06/20 10:22:58;;;;;;;5.77;5.37;;;;;;;29.14;47.00;101114.53;4972071;28;100689;-83
2023/06/20 10:25:25;;;;;;;5.63;5.23;;;;;;;29.26;46.90;101112.50;4993986;28;97133;-81
2023/06/20 10:28:01;;;;;;;5.97;5.53;;;;;;;29.49;46.23;101110.41;4994083;28;97314;-82
2023/06/20 10:30:53;;;;;;;5.90;5.50;;;;;;;29.68;45.69;101103.78;4972806;28;100169;-83
2023/06/20 10:33:27;;;;;;;5.63;5.23;;;;;;;29.88;45.53;101090.81;4990329;28;96767;-83
2023/06/20 10:35:59;;;;;;;4.90;4.53;;;;;;;30.05;45.64;101089.69;4963697;28;97127;-82
2023/06/20 10:38:28;;;;;;;5.57;5.17;;;;;;;30.13;44.86;101084.47;4993603;28;97160;-83
2023/06/20 10:41:13;;;;;;;5.40;4.90;;;;;;;30.19;44.25;101073.47;4989338;28;97942;-83
2023/06/20 10:43:50;;;;;;;5.30;4.90;;;;;;;30.18;44.16;101074.84;4979979;28;99057;-83
2023/06/20 10:46:16;;;;;;;4.50;4.20;;;;;;;30.18;44.54;101069.16;4985903;28;97042;-83
2023/06/20 10:48:42;;;;;;;5.03;4.67;;;;;;;30.07;44.57;101070.69;4991741;28;97533;-82
2023/06/20 10:51:08;;;;;;;6.90;4.40;;;;;;;30.10;44.44;101075.09;4975886;28;99010;-82
2023/06/20 10:53:34;;;;;;;5.17;4.57;;;;;;;30.18;44.31;101061.41;4991382;28;97879;-82
2023/06/20 10:55:59;;;;;;;4.40;4.10;;;;;;;30.33;44.30;101060.13;4994198;28;96580;-78
2023/06/20 10:58:25;;;;;;;4.57;4.27;;;;;;;30.49;44.11;101052.53;4992405;28;97744;-83
2023/06/20 11:00:51;;;;;;;4.50;4.20;;;;;;;30.52;43.99;101045.59;4992237;28;97410;-83
2023/06/20 11:03:17;;;;;;;5.40;4.90;;;;;;;30.64;43.85;101057.66;4987471;28;97192;-85
2023/06/20 11:05:48;;;;;;;4.80;4.40;;;;;;;30.68;42.98;101057.88;4996277;28;97648;-83
2023/06/20 11:08:20;;;;;;;4.70;4.40;;;;;;;30.67;43.32;101076.28;4987551;28;97120;-83
2023/06/20 11:10:47;;;;;;;4.97;4.57;;;;;;;30.74;43.72;101055.34;4969122;28;99134;-83
2023/06/20 11:13:12;;;;;;;4.43;4.13;;;;;;;30.73;43.43;101068.06;4993233;28;97965;-82
2023/06/20 11:15:38;;;;;;;4.23;3.93;;;;;;;30.70;43.57;101048.72;4976007;28;97519;-83
2023/06/20 11:18:06;;;;;;;5.20;4.83;;;;;;;30.78;43.35;101069.78;4994300;28;97422;-84
2023/06/20 11:20:37;;;;;;;4.60;4.23;;;;;;;30.81;43.45;101068.53;4988397;28;96868;-83
2023/06/20 11:23:04;;;;;;;5.13;4.73;;;;;;;30.80;43.23;101057.78;4987491;28;97696;-83
2023/06/20 11:25:32;;;;;;;5.30;4.90;;;;;;;30.76;43.09;101058.31;4973452;28;97121;-83